Time;durP1;ratioP1;P1;durP2;ratioP2;P2;SDS_P1;SDS_P2;PMS_P1;PMS_P2;Temp;Humidity;BMP_temperature;BMP_pressure;BME280_temperature;BME280_humidity;BME280_pressure;Samples;Min_cycle;Max_cycle;Signal;HPM_P1;HPM_P2
2021/12/20 00:01:07;;;;;;;17.27;5.35;;;4.20;99.90;;;;;;5026397;28;20083;-82
2021/12/20 00:03:34;;;;;;;19.42;5.57;;;4.10;99.90;;;;;;5027382;28;20041;-81
2021/12/20 00:06:00;;;;;;;18.52;5.60;;;4.10;99.90;;;;;;5034126;28;20033;-82
2021/12/20 00:08:27;;;;;;;19.98;5.05;;;4.10;99.90;;;;;;5026888;28;20378;-86
2021/12/20 00:10:53;;;;;;;24.25;6.82;;;4.00;99.90;;;;;;5026557;28;20037;-85
2021/12/20 00:13:19;;;;;;;16.10;4.88;;;4.00;99.90;;;;;;5019351;28;20078;-86
2021/12/20 00:15:45;;;;;;;19.58;5.72;;;4.00;99.90;;;;;;5039825;28;20104;-85
2021/12/20 00:18:11;;;;;;;17.48;4.75;;;4.00;99.90;;;;;;5042257;28;20025;-86
2021/12/20 00:20:37;;;;;;;20.90;6.05;;;4.00;99.90;;;;;;5026978;28;20053;-85
2021/12/20 00:23:04;;;;;;;16.63;4.38;;;4.00;99.90;;;;;;5024863;28;20037;-86
2021/12/20 00:25:30;;;;;;;19.92;5.57;;;4.00;99.90;;;;;;5028044;28;20047;-85
2021/12/20 00:27:56;;;;;;;20.75;5.22;;;4.00;99.90;;;;;;5038255;28;20029;-85
2021/12/20 00:30:22;;;;;;;19.65;5.15;;;3.90;99.90;;;;;;5030102;28;20025;-86
2021/12/20 00:32:48;;;;;;;18.83;5.05;;;4.00;99.90;;;;;;5027303;28;20135;-84
2021/12/20 00:35:14;;;;;;;18.50;4.80;;;4.00;99.90;;;;;;5039130;28;20632;-85
2021/12/20 00:40:27;;;;;;;20.40;4.63;;;4.00;99.90;;;;;;5044741;28;20041;-84
2021/12/20 00:42:54;;;;;;;17.63;4.72;;;4.00;99.90;;;;;;5020614;28;20140;-86
2021/12/20 00:45:22;;;;;;;16.52;4.57;;;3.90;99.90;;;;;;5032355;28;20425;-85
2021/12/20 00:47:48;;;;;;;17.00;4.80;;;3.90;99.90;;;;;;5027443;28;20037;-86
2021/12/20 00:50:16;;;;;;;22.67;5.00;;;3.80;99.90;;;;;;5019684;28;20049;-84
2021/12/20 00:52:42;;;;;;;20.00;4.57;;;3.90;99.90;;;;;;5026379;28;20038;-85
2021/12/20 00:55:09;;;;;;;14.95;4.72;;;3.70;99.90;;;;;;5025507;28;20037;-85
2021/12/20 00:57:35;;;;;;;20.52;5.38;;;3.70;99.90;;;;;;5026423;28;20030;-82
2021/12/20 01:00:03;;;;;;;23.92;5.35;;;3.70;99.90;;;;;;5016135;28;20041;-87
2021/12/20 01:02:29;;;;;;;18.27;4.60;;;3.60;99.90;;;;;;5014876;28;20037;-83
2021/12/20 01:04:54;;;;;;;19.90;5.28;;;3.70;99.90;;;;;;5033002;28;20029;-86
2021/12/20 01:07:20;;;;;;;19.83;5.38;;;3.60;99.90;;;;;;5010229;28;20081;-85
2021/12/20 01:09:45;;;;;;;17.63;4.43;;;3.50;99.90;;;;;;5011476;28;20054;-85
2021/12/20 01:12:17;;;;;;;16.50;4.18;;;3.40;99.90;;;;;;5026555;28;20065;-84
2021/12/20 01:14:44;;;;;;;10.93;4.22;;;3.40;99.90;;;;;;5030563;28;20512;-83
2021/12/20 01:17:10;;;;;;;10.80;4.25;;;3.30;99.90;;;;;;5024585;28;20052;-85
2021/12/20 01:19:37;;;;;;;13.75;4.68;;;3.30;99.90;;;;;;5023709;28;20033;-83
2021/12/20 01:22:04;;;;;;;15.00;5.03;;;3.20;99.90;;;;;;5041033;28;20032;-87
2021/12/20 01:24:30;;;;;;;17.02;4.82;;;3.20;99.90;;;;;;5023385;28;20080;-84
2021/12/20 01:27:02;;;;;;;15.90;4.20;;;3.20;99.90;;;;;;5021123;28;20033;-85
2021/12/20 01:29:27;;;;;;;17.10;4.07;;;3.20;99.90;;;;;;5041336;28;20045;-87
2021/12/20 01:31:53;;;;;;;10.68;4.28;;;3.10;99.90;;;;;;5024803;28;20037;-83
2021/12/20 01:34:19;;;;;;;14.55;4.57;;;3.20;99.90;;;;;;5022067;28;20521;-85
2021/12/20 01:36:44;;;;;;;14.23;4.28;;;3.10;99.90;;;;;;5026410;28;20021;-82
2021/12/20 01:39:10;;;;;;;16.63;5.15;;;3.10;99.90;;;;;;5023289;28;20065;-81
2021/12/20 01:41:41;;;;;;;15.88;4.47;;;3.10;99.90;;;;;;5042030;28;20033;-82
2021/12/20 01:44:07;;;;;;;13.27;4.55;;;3.10;99.90;;;;;;5025461;28;20362;-80
2021/12/20 01:46:33;;;;;;;21.63;4.47;;;3.10;99.90;;;;;;5040182;28;20132;-80
2021/12/20 01:49:01;;;;;;;12.23;3.97;;;3.00;99.90;;;;;;5024907;28;20083;-81
2021/12/20 01:54:03;;;;;;;14.63;4.30;;;3.10;99.90;;;;;;5031503;28;20049;-80
2021/12/20 01:56:30;;;;;;;17.13;4.82;;;3.10;99.90;;;;;;5040586;28;20029;-81
2021/12/20 01:59:07;;;;;;;17.05;4.85;;;3.10;99.90;;;;;;5028511;28;20033;-81
2021/12/20 02:01:33;;;;;;;10.98;3.53;;;3.10;99.90;;;;;;5031903;28;20529;-83
2021/12/20 02:04:03;;;;;;;11.90;4.30;;;3.00;99.90;;;;;;5015925;28;20202;-82
2021/12/20 02:06:39;;;;;;;15.30;4.60;;;3.00;99.90;;;;;;5007108;28;20492;-82
2021/12/20 02:09:11;;;;;;;16.27;4.47;;;3.00;99.90;;;;;;4996499;28;20049;-83
2021/12/20 02:11:38;;;;;;;15.02;4.70;;;3.00;99.90;;;;;;5006797;28;20021;-82
2021/12/20 02:14:06;;;;;;;20.95;4.47;;;2.90;99.90;;;;;;5020858;28;20097;-82
2021/12/20 02:16:32;;;;;;;12.32;4.00;;;2.90;99.90;;;;;;5020341;28;20029;-80
2021/12/20 02:19:01;;;;;;;13.23;3.80;;;2.80;99.90;;;;;;5001492;28;20030;-81
2021/12/20 02:21:27;;;;;;;17.75;4.40;;;2.80;99.90;;;;;;5011491;28;20045;-79
2021/12/20 02:23:53;;;;;;;14.95;4.32;;;2.90;99.90;;;;;;5011656;28;20085;-81
2021/12/20 02:26:21;;;;;;;13.35;3.95;;;2.80;99.90;;;;;;5011159;28;20040;-82
2021/12/20 02:28:49;;;;;;;17.23;4.93;;;2.80;99.90;;;;;;4995151;28;20424;-81
2021/12/20 02:39:16;;;;;;;22.45;4.50;;;2.60;99.90;;;;;;5033651;28;20022;-82
2021/12/20 02:41:44;;;;;;;11.90;4.05;;;2.60;99.90;;;;;;5032263;28;20404;-82
2021/12/20 02:44:22;;;;;;;18.35;4.85;;;2.60;99.90;;;;;;5017241;28;20036;-80
2021/12/20 02:47:03;;;;;;;13.52;4.75;;;2.60;99.90;;;;;;4994908;28;20085;-80
2021/12/20 02:49:29;;;;;;;13.32;4.75;;;2.60;99.90;;;;;;5012307;28;20033;-80
2021/12/20 02:52:02;;;;;;;14.52;5.05;;;2.60;99.90;;;;;;5019346;28;20022;-80
2021/12/20 02:54:28;;;;;;;15.43;4.65;;;2.60;99.90;;;;;;5026829;28;20026;-82
2021/12/20 02:56:57;;;;;;;14.20;4.30;;;2.50;99.90;;;;;;5011682;28;20061;-81
2021/12/20 02:59:23;;;;;;;17.90;4.35;;;2.50;99.90;;;;;;5028496;28;20048;-85
2021/12/20 03:01:59;;;;;;;11.50;3.97;;;2.50;99.90;;;;;;5024145;28;20168;-83
2021/12/20 03:04:25;;;;;;;15.30;4.15;;;2.50;99.90;;;;;;5028006;28;20048;-82
2021/12/20 03:07:04;;;;;;;12.13;3.60;;;2.40;99.90;;;;;;5030148;28;20111;-82
2021/12/20 03:09:36;;;;;;;15.85;3.85;;;2.50;99.90;;;;;;5030160;28;20037;-82
2021/12/20 03:12:04;;;;;;;12.25;4.07;;;2.50;99.90;;;;;;5017377;28;20067;-82
2021/12/20 03:14:36;;;;;;;14.30;3.85;;;2.40;99.90;;;;;;5015388;28;20037;-83
2021/12/20 03:17:02;;;;;;;11.77;3.65;;;2.40;99.90;;;;;;5013279;28;20038;-82
2021/12/20 03:19:29;;;;;;;16.05;4.20;;;2.40;99.90;;;;;;5008498;28;20057;-82
2021/12/20 03:21:56;;;;;;;15.88;4.30;;;2.40;99.90;;;;;;5039696;28;20064;-80
2021/12/20 03:24:22;;;;;;;9.57;3.70;;;2.30;99.90;;;;;;5023247;28;20036;-82
2021/12/20 03:26:47;;;;;;;12.90;4.63;;;2.30;99.90;;;;;;5028629;28;20029;-82
2021/12/20 03:29:13;;;;;;;11.55;4.40;;;2.30;99.90;;;;;;5029515;28;20101;-82
2021/12/20 03:31:39;;;;;;;12.80;4.53;;;2.40;99.90;;;;;;5024836;28;20038;-82
2021/12/20 03:34:06;;;;;;;16.92;4.50;;;2.40;99.90;;;;;;5028890;28;20064;-81
2021/12/20 03:36:32;;;;;;;15.52;3.88;;;2.40;99.90;;;;;;5021386;28;20496;-82
2021/12/20 03:38:58;;;;;;;14.50;4.65;;;2.40;99.90;;;;;;5018679;28;20034;-81
2021/12/20 03:41:24;;;;;;;12.77;3.67;;;2.40;99.90;;;;;;5023905;28;20040;-82
2021/12/20 03:43:50;;;;;;;14.00;3.67;;;2.40;99.90;;;;;;5025514;28;20107;-82
2021/12/20 03:46:16;;;;;;;12.32;4.15;;;2.40;99.90;;;;;;5027185;28;20034;-83
2021/12/20 03:48:41;;;;;;;14.35;4.25;;;2.40;99.90;;;;;;5047358;28;20049;-81
2021/12/20 03:51:07;;;;;;;11.85;3.75;;;2.50;99.90;;;;;;5031334;28;20038;-81
2021/12/20 03:53:35;;;;;;;12.73;4.68;;;2.50;99.90;;;;;;5030177;28;20037;-81
2021/12/20 03:56:04;;;;;;;17.15;3.95;;;2.40;99.90;;;;;;5029128;28;20045;-81
2021/12/20 03:58:30;;;;;;;15.43;3.88;;;2.40;99.90;;;;;;5028402;28;20022;-80
2021/12/20 04:00:57;;;;;;;11.52;3.60;;;2.40;99.90;;;;;;5009990;28;20034;-81
2021/12/20 04:03:23;;;;;;;13.10;3.60;;;2.50;99.90;;;;;;5010782;28;20038;-79
2021/12/20 04:05:49;;;;;;;15.52;3.97;;;2.40;99.90;;;;;;5034919;28;20084;-81
2021/12/20 04:08:15;;;;;;;11.75;3.65;;;2.40;99.90;;;;;;5027599;28;20041;-81
2021/12/20 04:10:40;;;;;;;16.33;4.15;;;2.40;99.90;;;;;;5027716;28;20041;-80
2021/12/20 04:13:09;;;;;;;13.52;4.20;;;2.40;99.90;;;;;;5028675;28;20521;-82
2021/12/20 04:15:35;;;;;;;14.27;3.60;;;2.50;99.90;;;;;;5029118;28;20029;-80
2021/12/20 04:18:00;;;;;;;13.88;4.05;;;2.50;99.90;;;;;;5028118;28;20069;-80
2021/12/20 04:20:26;;;;;;;14.95;4.28;;;2.40;99.90;;;;;;5029562;28;20036;-80
2021/12/20 04:22:52;;;;;;;13.93;4.25;;;2.40;99.90;;;;;;5032006;28;20067;-84
2021/12/20 04:25:17;;;;;;;18.60;4.40;;;2.40;99.90;;;;;;5032378;28;20048;-81
2021/12/20 04:27:43;;;;;;;13.35;4.63;;;2.40;99.90;;;;;;5007991;28;20501;-82
2021/12/20 04:30:10;;;;;;;21.98;4.80;;;2.40;99.90;;;;;;5025547;28;20027;-82
2021/12/20 04:32:37;;;;;;;18.92;4.20;;;2.40;99.90;;;;;;5021539;28;20036;-81
2021/12/20 04:35:06;;;;;;;16.50;4.45;;;2.40;99.90;;;;;;5025582;28;20036;-83
2021/12/20 04:37:32;;;;;;;22.15;4.43;;;2.40;99.90;;;;;;5021763;28;20037;-83
2021/12/20 04:39:58;;;;;;;16.90;4.72;;;2.50;99.90;;;;;;5024370;28;20080;-81
2021/12/20 04:42:24;;;;;;;16.55;4.70;;;2.40;99.90;;;;;;5023657;28;20041;-81
2021/12/20 04:44:49;;;;;;;14.50;4.10;;;2.40;99.90;;;;;;5022256;28;20037;-82
2021/12/20 04:47:15;;;;;;;14.73;4.60;;;2.40;99.90;;;;;;5023212;28;20040;-81
2021/12/20 04:49:41;;;;;;;19.38;4.40;;;2.40;99.90;;;;;;5040618;28;20107;-81
2021/12/20 04:52:06;;;;;;;15.30;4.07;;;2.40;99.90;;;;;;5025194;28;20037;-82
2021/12/20 04:54:32;;;;;;;17.85;6.93;;;2.40;99.90;;;;;;5025100;28;20116;-83
2021/12/20 04:56:57;;;;;;;20.23;4.25;;;2.40;99.90;;;;;;5027743;28;20034;-80
2021/12/20 04:59:23;;;;;;;13.88;3.90;;;2.40;99.90;;;;;;5031859;28;20297;-86
2021/12/20 05:01:49;;;;;;;15.02;4.38;;;2.30;99.90;;;;;;5057012;28;20029;-86
2021/12/20 05:04:14;;;;;;;15.48;4.22;;;2.30;99.90;;;;;;5040480;28;20026;-85
2021/12/20 05:06:40;;;;;;;13.90;4.65;;;2.30;99.90;;;;;;5040020;28;20029;-83
2021/12/20 05:09:06;;;;;;;12.20;4.22;;;2.40;99.90;;;;;;5035655;28;20034;-81
2021/12/20 05:11:34;;;;;;;18.63;5.15;;;2.30;99.90;;;;;;5026070;28;20041;-82
2021/12/20 05:14:01;;;;;;;16.50;4.20;;;2.30;99.90;;;;;;5024395;28;20033;-80
2021/12/20 05:16:27;;;;;;;17.25;4.60;;;2.40;99.90;;;;;;5025107;28;20028;-82
2021/12/20 05:18:53;;;;;;;14.23;4.05;;;2.30;99.90;;;;;;5024044;28;20064;-83
2021/12/20 05:21:19;;;;;;;15.20;4.53;;;2.30;99.90;;;;;;5025925;28;20033;-83
2021/12/20 05:23:48;;;;;;;16.58;4.00;;;2.30;99.90;;;;;;5024333;28;20092;-81
2021/12/20 05:26:14;;;;;;;15.57;4.80;;;2.20;99.90;;;;;;5040388;28;20091;-81
2021/12/20 05:28:39;;;;;;;13.98;4.05;;;2.20;99.90;;;;;;5024971;28;20041;-81
2021/12/20 05:31:05;;;;;;;14.02;4.68;;;2.30;99.90;;;;;;5023399;28;20512;-81
2021/12/20 05:33:30;;;;;;;12.88;4.22;;;2.30;99.90;;;;;;5024361;28;20540;-82
2021/12/20 05:35:56;;;;;;;18.63;3.60;;;2.30;99.90;;;;;;5023927;28;20048;-81
2021/12/20 05:38:22;;;;;;;16.33;4.13;;;2.30;99.90;;;;;;5040892;28;20489;-82
2021/12/20 05:40:47;;;;;;;14.88;4.00;;;2.20;99.90;;;;;;5026183;28;20048;-82
2021/12/20 05:43:13;;;;;;;16.17;4.15;;;2.10;99.90;;;;;;5042400;28;20033;-82
2021/12/20 05:45:39;;;;;;;21.15;4.82;;;2.20;99.90;;;;;;5024468;28;20022;-81
2021/12/20 05:48:04;;;;;;;21.95;4.13;;;2.30;99.90;;;;;;5042313;28;20030;-82
2021/12/20 05:50:31;;;;;;;12.50;4.60;;;2.30;99.90;;;;;;5023329;28;20049;-81
2021/12/20 05:52:56;;;;;;;14.02;4.60;;;2.10;99.90;;;;;;5026276;28;20071;-81
2021/12/20 05:55:22;;;;;;;13.07;3.85;;;2.10;99.90;;;;;;5039472;28;20068;-81
2021/12/20 05:57:48;;;;;;;10.32;3.80;;;2.20;99.90;;;;;;5024480;28;20038;-83
2021/12/20 06:00:18;;;;;;;13.68;3.67;;;2.20;99.90;;;;;;5024528;28;20034;-83
2021/12/20 06:02:47;;;;;;;15.68;3.88;;;2.20;99.90;;;;;;5025385;28;20030;-83
2021/12/20 06:05:13;;;;;;;14.73;4.32;;;2.30;99.90;;;;;;5040883;28;20038;-82
2021/12/20 06:07:42;;;;;;;16.67;4.65;;;2.20;99.90;;;;;;5024089;28;20511;-82
2021/12/20 06:10:12;;;;;;;15.73;4.28;;;2.10;99.90;;;;;;5019497;28;20048;-82
2021/12/20 06:12:39;;;;;;;15.48;3.70;;;2.20;99.90;;;;;;5004716;28;20045;-81
2021/12/20 06:15:05;;;;;;;12.23;4.20;;;2.20;99.90;;;;;;4998914;28;20044;-83
2021/12/20 06:17:31;;;;;;;18.90;5.38;;;2.20;99.90;;;;;;5005416;28;20423;-82
2021/12/20 06:19:56;;;;;;;12.10;4.30;;;2.20;99.90;;;;;;5016589;28;20034;-82
2021/12/20 06:22:22;;;;;;;13.18;4.10;;;2.30;99.90;;;;;;5028161;28;20053;-85
2021/12/20 06:24:48;;;;;;;13.20;3.72;;;2.10;99.90;;;;;;5043261;28;20029;-81
2021/12/20 06:27:13;;;;;;;15.30;4.05;;;2.20;99.90;;;;;;5034845;28;20064;-83
2021/12/20 06:29:39;;;;;;;17.33;5.10;;;2.20;99.90;;;;;;5030460;28;20060;-82
2021/12/20 06:32:06;;;;;;;13.77;4.10;;;2.10;99.90;;;;;;5025634;28;20132;-86
2021/12/20 06:34:35;;;;;;;10.20;3.83;;;2.00;99.90;;;;;;5027835;28;20075;-83
2021/12/20 06:37:02;;;;;;;14.43;4.53;;;1.90;99.90;;;;;;5028023;28;20060;-82
2021/12/20 06:39:30;;;;;;;13.80;4.22;;;2.00;99.90;;;;;;5027143;28;20041;-81
2021/12/20 06:41:56;;;;;;;15.98;4.65;;;2.00;99.90;;;;;;5027223;28;20034;-82
2021/12/20 06:44:22;;;;;;;11.57;5.03;;;2.00;99.90;;;;;;5027793;28;20396;-81
2021/12/20 06:46:49;;;;;;;13.15;3.60;;;2.00;99.90;;;;;;5027733;28;20025;-82
2021/12/20 06:49:15;;;;;;;12.70;4.72;;;1.90;99.90;;;;;;5043955;28;20473;-82
2021/12/20 06:51:43;;;;;;;14.20;4.22;;;2.00;99.90;;;;;;5035710;28;20060;-83
2021/12/20 06:54:19;;;;;;;13.98;4.68;;;2.00;99.90;;;;;;5024118;28;20030;-81
2021/12/20 06:56:45;;;;;;;19.27;3.83;;;2.00;99.90;;;;;;5009825;28;20061;-82
2021/12/20 06:59:11;;;;;;;13.25;4.07;;;2.00;99.90;;;;;;5043111;28;20029;-82
2021/12/20 07:01:37;;;;;;;11.88;4.75;;;2.00;99.90;;;;;;5026401;28;20085;-80
2021/12/20 07:04:03;;;;;;;11.98;4.63;;;2.00;99.90;;;;;;5024872;28;20037;-80
2021/12/20 07:06:29;;;;;;;16.77;4.30;;;2.10;99.90;;;;;;5026996;28;20164;-82
2021/12/20 07:08:56;;;;;;;7.40;3.97;;;1.90;99.90;;;;;;5026279;28;20569;-83
2021/12/20 07:11:22;;;;;;;9.55;3.95;;;2.00;99.90;;;;;;5027039;28;20069;-81
2021/12/20 07:13:48;;;;;;;14.88;4.53;;;2.10;99.90;;;;;;5028232;28;20033;-82
2021/12/20 07:16:14;;;;;;;12.07;4.47;;;2.10;99.90;;;;;;5027742;28;20098;-82
2021/12/20 07:18:41;;;;;;;17.95;4.35;;;1.90;99.90;;;;;;5027100;28;20026;-82
2021/12/20 07:21:07;;;;;;;13.88;3.88;;;2.00;99.90;;;;;;5028519;28;20158;-82
2021/12/20 07:23:34;;;;;;;10.80;4.07;;;1.90;99.90;;;;;;5046595;28;20068;-83
2021/12/20 07:26:01;;;;;;;14.38;4.30;;;1.90;99.90;;;;;;5045302;28;20036;-82
2021/12/20 07:28:27;;;;;;;10.20;3.70;;;2.00;99.90;;;;;;5033133;28;20467;-85
2021/12/20 07:30:52;;;;;;;9.45;3.80;;;1.90;99.90;;;;;;5044661;28;20030;-86
2021/12/20 07:33:18;;;;;;;14.00;4.40;;;1.90;99.90;;;;;;5032300;28;20026;-82
2021/12/20 07:35:45;;;;;;;14.55;4.32;;;1.90;99.90;;;;;;5048376;28;20037;-84
2021/12/20 07:38:13;;;;;;;11.88;4.45;;;1.90;99.90;;;;;;5059320;28;20047;-84
2021/12/20 07:40:45;;;;;;;13.35;4.35;;;2.00;99.90;;;;;;5029465;28;20021;-84
2021/12/20 07:43:14;;;;;;;9.27;3.70;;;2.00;99.90;;;;;;5030978;28;20022;-85
2021/12/20 07:45:47;;;;;;;11.43;3.78;;;1.90;99.90;;;;;;5029634;28;20036;-86
2021/12/20 07:48:13;;;;;;;11.25;4.35;;;2.00;99.90;;;;;;5029583;28;20452;-87
2021/12/20 07:50:39;;;;;;;11.90;3.92;;;1.90;99.90;;;;;;5030159;28;20029;-85
2021/12/20 07:53:04;;;;;;;15.85;4.00;;;2.00;99.90;;;;;;5047728;28;20040;-86
2021/12/20 07:55:30;;;;;;;10.02;4.43;;;2.00;99.90;;;;;;5046388;28;20112;-85
2021/12/20 07:57:56;;;;;;;9.98;3.53;;;2.10;99.90;;;;;;5029491;28;20481;-84
2021/12/20 08:00:24;;;;;;;10.10;4.05;;;2.20;99.90;;;;;;5026158;28;20044;-85
2021/12/20 08:02:50;;;;;;;9.30;3.65;;;2.10;99.90;;;;;;5039499;28;20060;-84
2021/12/20 08:05:19;;;;;;;13.55;4.10;;;2.10;99.90;;;;;;5045597;28;20034;-86
2021/12/20 08:07:45;;;;;;;14.35;3.72;;;2.10;99.90;;;;;;5029205;28;20063;-84
2021/12/20 08:10:11;;;;;;;11.07;3.72;;;2.00;99.90;;;;;;5031934;28;20037;-84
2021/12/20 08:12:37;;;;;;;10.80;4.25;;;1.90;99.90;;;;;;5021962;28;20464;-83
2021/12/20 08:15:03;;;;;;;16.90;4.13;;;1.80;99.90;;;;;;5028054;28;20037;-83
2021/12/20 08:17:31;;;;;;;11.18;3.30;;;1.90;99.90;;;;;;5028329;28;20404;-87
2021/12/20 08:19:57;;;;;;;12.30;4.78;;;2.00;99.90;;;;;;5038070;28;20035;-84
2021/12/20 08:22:25;;;;;;;13.00;3.88;;;2.00;99.90;;;;;;5031698;28;20037;-88
2021/12/20 08:24:51;;;;;;;9.20;3.55;;;1.90;99.90;;;;;;4993037;28;20576;-87
2021/12/20 08:27:17;;;;;;;11.15;3.83;;;2.10;99.90;;;;;;5000143;28;20477;-88
2021/12/20 08:29:43;;;;;;;16.00;4.85;;;2.10;99.90;;;;;;5030906;28;20036;-87
2021/12/20 08:32:08;;;;;;;13.52;4.28;;;2.10;99.90;;;;;;5029692;28;20107;-87
2021/12/20 08:34:34;;;;;;;8.73;4.22;;;2.20;99.90;;;;;;5028264;28;20394;-86
2021/12/20 08:37:03;;;;;;;13.43;3.72;;;2.30;99.90;;;;;;5029964;28;20029;-88
2021/12/20 08:39:30;;;;;;;10.50;3.75;;;2.30;99.90;;;;;;5029348;28;20021;-87
2021/12/20 08:41:56;;;;;;;10.85;3.42;;;2.40;99.90;;;;;;5028982;28;20021;-86
2021/12/20 08:44:24;;;;;;;10.18;3.72;;;2.50;99.90;;;;;;5028707;28;20099;-84
2021/12/20 08:46:51;;;;;;;14.25;3.90;;;2.60;99.90;;;;;;5045651;28;20029;-84
2021/12/20 08:49:16;;;;;;;12.75;3.47;;;2.60;99.90;;;;;;5043081;28;20093;-84
2021/12/20 08:51:42;;;;;;;10.15;3.72;;;2.70;99.90;;;;;;5043382;28;20041;-85
2021/12/20 08:54:08;;;;;;;11.75;3.63;;;2.60;99.90;;;;;;5025989;28;20044;-85
2021/12/20 08:56:34;;;;;;;12.35;3.50;;;2.70;99.90;;;;;;5026692;28;20056;-86
2021/12/20 08:59:00;;;;;;;7.65;3.42;;;2.80;99.90;;;;;;5045601;28;20089;-83
2021/12/20 09:01:26;;;;;;;7.57;3.17;;;2.90;99.90;;;;;;5025136;28;20030;-82
2021/12/20 09:03:52;;;;;;;10.27;3.25;;;3.00;99.90;;;;;;5026995;28;20049;-83
2021/12/20 09:06:21;;;;;;;14.50;5.07;;;3.10;99.90;;;;;;5027619;28;20119;-84
2021/12/20 09:08:47;;;;;;;12.13;3.35;;;3.00;99.90;;;;;;5028624;28;20424;-87
2021/12/20 09:11:13;;;;;;;12.77;3.67;;;3.10;99.90;;;;;;5027608;28;20088;-84
2021/12/20 09:13:41;;;;;;;8.80;4.35;;;3.10;99.90;;;;;;5027119;28;20037;-83
2021/12/20 09:16:07;;;;;;;12.13;3.92;;;3.10;99.90;;;;;;5026082;28;20041;-81
2021/12/20 09:18:36;;;;;;;12.80;3.92;;;3.00;99.90;;;;;;5024928;28;20032;-83
2021/12/20 09:21:02;;;;;;;9.93;4.05;;;3.20;99.90;;;;;;5026828;28;20525;-85
2021/12/20 09:23:30;;;;;;;11.25;4.00;;;3.30;99.90;;;;;;5030065;28;20041;-86
2021/12/20 09:25:55;;;;;;;11.88;3.83;;;3.30;99.90;;;;;;5027030;28;20033;-83
2021/12/20 09:28:21;;;;;;;14.30;4.00;;;3.30;99.90;;;;;;5026838;28;20053;-83
2021/12/20 09:30:47;;;;;;;12.23;5.53;;;3.30;99.90;;;;;;5027211;28;20026;-83
2021/12/20 09:33:13;;;;;;;8.20;3.40;;;3.40;99.90;;;;;;5025897;28;20120;-84
2021/12/20 09:35:39;;;;;;;10.55;3.40;;;3.50;99.90;;;;;;5027072;28;20180;-81
2021/12/20 09:38:08;;;;;;;12.13;4.07;;;3.40;99.90;;;;;;5027591;28;20036;-86
2021/12/20 09:40:40;;;;;;;18.85;4.88;;;3.40;99.90;;;;;;5027382;28;20053;-83
2021/12/20 09:43:16;;;;;;;12.23;4.00;;;3.40;99.90;;;;;;5027061;28;20029;-82
2021/12/20 09:45:45;;;;;;;12.77;3.85;;;3.40;99.90;;;;;;5025285;28;20132;-81
2021/12/20 09:48:13;;;;;;;8.43;3.53;;;3.30;99.90;;;;;;5025982;28;20033;-84
2021/12/20 09:50:40;;;;;;;9.07;3.33;;;3.40;99.90;;;;;;5026178;28;20038;-85
2021/12/20 09:53:07;;;;;;;10.32;4.05;;;3.40;99.90;;;;;;5019731;28;20043;-85
2021/12/20 09:55:34;;;;;;;10.90;3.38;;;3.30;99.90;;;;;;5045239;28;20052;-83
2021/12/20 09:58:04;;;;;;;12.65;3.72;;;3.30;99.90;;;;;;5029908;28;20083;-81
2021/12/20 10:00:32;;;;;;;8.52;3.28;;;3.40;99.90;;;;;;5026459;28;20033;-82
2021/12/20 10:03:00;;;;;;;9.65;3.30;;;3.40;99.90;;;;;;5025435;28;20085;-81
2021/12/20 10:05:30;;;;;;;10.32;4.30;;;3.40;99.90;;;;;;5026533;28;20029;-88
2021/12/20 10:08:14;;;;;;;11.77;3.58;;;3.30;99.90;;;;;;5026446;28;20022;-87
2021/12/20 10:10:43;;;;;;;10.18;3.17;;;3.30;99.90;;;;;;5026282;28;20033;-85
2021/12/20 10:13:29;;;;;;;11.85;3.72;;;3.40;99.90;;;;;;5027815;28;20040;-84
2021/12/20 10:15:56;;;;;;;13.73;3.95;;;3.40;99.90;;;;;;5043741;28;20481;-82
2021/12/20 10:18:24;;;;;;;11.18;3.25;;;3.30;99.90;;;;;;5025090;28;20493;-85
2021/12/20 10:20:59;;;;;;;9.38;3.58;;;3.30;99.90;;;;;;5031817;28;20056;-87
2021/12/20 10:23:29;;;;;;;6.82;3.35;;;3.30;99.90;;;;;;5043442;28;20005;-85
2021/12/20 10:26:09;;;;;;;9.27;3.30;;;3.30;99.90;;;;;;5038565;28;20030;-85
2021/12/20 10:28:37;;;;;;;10.85;3.95;;;3.40;99.90;;;;;;5038720;28;20087;-85
2021/12/20 10:31:10;;;;;;;6.88;3.35;;;3.30;99.90;;;;;;5021774;28;20029;-86
2021/12/20 10:33:42;;;;;;;10.82;3.38;;;3.40;99.90;;;;;;5030874;28;20032;-82
2021/12/20 10:36:12;;;;;;;9.55;3.67;;;3.40;99.90;;;;;;5013632;28;20485;-84
2021/12/20 10:38:40;;;;;;;12.38;3.67;;;3.50;99.90;;;;;;5019833;28;20152;-83
2021/12/20 10:41:24;;;;;;;10.35;3.90;;;3.50;99.90;;;;;;5037131;28;20038;-81
2021/12/20 10:43:59;;;;;;;12.05;4.35;;;3.50;99.90;;;;;;5018018;28;20030;-81
2021/12/20 10:46:26;;;;;;;15.50;3.47;;;3.50;99.90;;;;;;5037504;28;20104;-81
2021/12/20 10:49:10;;;;;;;12.18;3.88;;;3.50;99.90;;;;;;5023649;28;20038;-82
2021/12/20 10:51:50;;;;;;;9.35;4.05;;;3.70;99.90;;;;;;5023814;28;20045;-82
2021/12/20 10:54:19;;;;;;;10.63;3.45;;;3.70;99.90;;;;;;5040350;28;20054;-84
2021/12/20 10:56:57;;;;;;;9.25;3.60;;;3.80;99.90;;;;;;5023436;28;20084;-84
2021/12/20 10:59:25;;;;;;;12.75;3.97;;;3.90;99.90;;;;;;5039215;28;20044;-82
2021/12/20 11:04:23;;;;;;;15.43;4.53;;;3.70;99.90;;;;;;5045780;28;20021;-82
2021/12/20 11:09:59;;;;;;;11.18;4.00;;;3.90;99.90;;;;;;5008820;28;20045;-82
2021/12/20 11:12:29;;;;;;;11.32;3.90;;;4.00;99.90;;;;;;5031495;28;20037;-83
2021/12/20 11:15:08;;;;;;;11.95;3.42;;;4.00;99.90;;;;;;5035747;28;20025;-84
2021/12/20 11:17:39;;;;;;;11.05;4.60;;;4.00;99.90;;;;;;5043906;28;20025;-82
2021/12/20 11:20:05;;;;;;;8.90;3.53;;;4.00;99.90;;;;;;5027306;28;20052;-82
2021/12/20 11:22:42;;;;;;;10.48;4.07;;;4.10;99.90;;;;;;5039553;28;20077;-85
2021/12/20 11:25:13;;;;;;;13.07;3.70;;;4.10;99.90;;;;;;5029916;28;20048;-81
2021/12/20 11:27:51;;;;;;;11.23;3.85;;;4.30;99.90;;;;;;5020996;28;20116;-83
2021/12/20 11:30:20;;;;;;;10.88;3.70;;;4.30;99.90;;;;;;5019233;28;20042;-81
2021/12/20 11:32:48;;;;;;;13.23;4.35;;;4.50;99.90;;;;;;5030541;28;20120;-83
2021/12/20 11:35:20;;;;;;;10.20;4.20;;;4.50;99.90;;;;;;5029238;28;20030;-81
2021/12/20 11:37:51;;;;;;;11.57;3.72;;;4.50;99.90;;;;;;5027570;28;20041;-84
2021/12/20 11:40:19;;;;;;;10.48;3.83;;;4.50;99.90;;;;;;5026965;28;20045;-82
2021/12/20 11:42:46;;;;;;;11.52;3.65;;;4.40;99.90;;;;;;5026709;28;20128;-81
2021/12/20 11:45:16;;;;;;;7.97;3.75;;;4.50;99.90;;;;;;5022660;28;20043;-84
2021/12/20 11:48:13;;;;;;;11.60;3.78;;;4.60;99.90;;;;;;5028577;28;20033;-83
2021/12/20 11:50:45;;;;;;;10.15;3.42;;;4.50;99.90;;;;;;5025690;28;20068;-82
2021/12/20 11:53:14;;;;;;;11.18;5.20;;;4.40;99.90;;;;;;5028151;28;20041;-82
2021/12/20 11:55:50;;;;;;;9.55;3.78;;;4.40;99.90;;;;;;5027574;28;20085;-83
2021/12/20 11:58:23;;;;;;;9.85;3.70;;;4.50;99.90;;;;;;5054686;28;20128;-82
2021/12/20 12:00:59;;;;;;;12.57;4.13;;;4.50;99.90;;;;;;5037068;28;20073;-82
2021/12/20 12:03:34;;;;;;;9.75;4.10;;;4.60;99.90;;;;;;5056947;28;20033;-80
2021/12/20 12:06:02;;;;;;;10.60;4.07;;;4.60;99.90;;;;;;5041034;28;20026;-82
2021/12/20 12:08:54;;;;;;;9.20;3.83;;;4.40;99.90;;;;;;5057638;28;20013;-81
2021/12/20 12:11:20;;;;;;;9.65;3.65;;;4.40;99.90;;;;;;5049928;28;20029;-83
2021/12/20 12:13:47;;;;;;;10.57;4.13;;;4.60;99.90;;;;;;5024467;28;20025;-82
2021/12/20 12:16:30;;;;;;;13.57;4.03;;;4.60;99.90;;;;;;5026055;28;20025;-86
2021/12/20 12:18:58;;;;;;;11.93;4.10;;;4.60;99.90;;;;;;5032025;28;20056;-86
2021/12/20 12:21:39;;;;;;;8.45;3.70;;;4.50;99.90;;;;;;5049270;28;20504;-85
2021/12/20 12:24:16;;;;;;;12.48;5.47;;;4.50;99.90;;;;;;5027405;28;20029;-85
2021/12/20 12:26:47;;;;;;;15.27;3.97;;;4.60;99.90;;;;;;5031061;28;20229;-82
2021/12/20 12:29:26;;;;;;;10.43;3.90;;;4.60;99.90;;;;;;5027939;28;20044;-81
2021/12/20 12:31:56;;;;;;;15.70;3.97;;;4.60;99.90;;;;;;5028218;28;20040;-84
2021/12/20 12:34:24;;;;;;;14.68;5.10;;;4.40;99.90;;;;;;5028587;28;20029;-82
2021/12/20 12:37:25;;;;;;;11.45;4.20;;;4.30;99.90;;;;;;5045914;28;20024;-83
2021/12/20 12:39:51;;;;;;;13.50;3.85;;;4.40;99.90;;;;;;5027385;28;20108;-82
2021/12/20 12:42:17;;;;;;;14.25;5.00;;;4.60;99.90;;;;;;5027268;28;20026;-82
2021/12/20 12:44:51;;;;;;;12.00;4.22;;;4.70;99.90;;;;;;5028473;28;20382;-88
2021/12/20 12:47:35;;;;;;;10.40;3.67;;;4.80;99.90;;;;;;5027849;28;20041;-84
2021/12/20 12:50:03;;;;;;;9.75;4.43;;;4.80;99.90;;;;;;5028242;28;20105;-86
2021/12/20 12:52:31;;;;;;;10.80;4.30;;;4.70;99.90;;;;;;5027386;28;20033;-86
2021/12/20 12:55:18;;;;;;;8.18;4.13;;;4.90;99.90;;;;;;5026946;28;20485;-86
2021/12/20 12:57:44;;;;;;;11.98;4.40;;;5.00;99.90;;;;;;5027882;28;20494;-84
2021/12/20 13:00:31;;;;;;;11.68;4.30;;;4.90;99.90;;;;;;5028285;28;20033;-82
2021/12/20 13:03:07;;;;;;;11.73;4.00;;;5.00;99.90;;;;;;5043845;28;20029;-84
2021/12/20 13:05:32;;;;;;;10.55;4.05;;;5.00;99.90;;;;;;5025235;28;20041;-81
2021/12/20 13:08:02;;;;;;;11.35;4.53;;;5.10;99.90;;;;;;5024519;28;20029;-82
2021/12/20 13:10:39;;;;;;;12.77;4.70;;;5.10;99.90;;;;;;5023914;28;20033;-83
2021/12/20 13:13:22;;;;;;;10.27;4.53;;;5.00;99.90;;;;;;5025173;28;20492;-83